createdAt,value
2018-11-27T00:00:28.582Z,2.63
2018-11-27T00:03:00.138Z,2.63
2018-11-27T00:05:29.276Z,2.67
2018-11-27T00:07:57.760Z,2.58
2018-11-27T00:10:26.282Z,2.57
2018-11-27T00:12:54.858Z,2.48
2018-11-27T00:15:23.346Z,2.55
2018-11-27T00:17:51.848Z,2.57
2018-11-27T00:20:20.336Z,2.51
2018-11-27T00:22:48.812Z,2.50
2018-11-27T00:25:18.236Z,2.53
2018-11-27T00:27:46.764Z,2.54
2018-11-27T00:30:17.949Z,2.53
2018-11-27T00:32:46.432Z,2.60
2018-11-27T00:35:16.241Z,2.60
2018-11-27T00:37:44.723Z,2.58
2018-11-27T00:40:15.420Z,2.56
2018-11-27T00:42:43.974Z,2.56
2018-11-27T00:45:14.319Z,2.40
2018-11-27T00:47:43.568Z,2.42
2018-11-27T00:50:14.083Z,2.42
2018-11-27T00:52:42.583Z,2.47
2018-11-27T00:55:12.278Z,2.45
2018-11-27T00:57:41.515Z,2.41
2018-11-27T01:00:12.963Z,2.48
2018-11-27T01:02:41.461Z,2.51
2018-11-27T01:05:13.227Z,2.52
2018-11-27T01:07:41.830Z,2.55
2018-11-27T01:10:12.875Z,2.56
2018-11-27T01:12:41.421Z,2.51
2018-11-27T01:15:11.224Z,2.52
2018-11-27T01:17:43.806Z,2.56
2018-11-27T01:20:21.072Z,2.57
2018-11-27T01:22:49.604Z,2.54
2018-11-27T01:25:18.140Z,2.56
2018-11-27T01:27:46.659Z,2.53
2018-11-27T01:30:17.989Z,2.57
2018-11-27T01:32:46.738Z,2.66
2018-11-27T01:35:16.953Z,2.63
2018-11-27T01:37:46.056Z,2.65
2018-11-27T01:40:16.740Z,2.66
2018-11-27T01:42:45.533Z,2.68
2018-11-27T01:45:14.939Z,2.62
2018-11-27T01:47:43.454Z,2.67
2018-11-27T01:50:13.812Z,2.65
2018-11-27T01:52:42.411Z,2.65
2018-11-27T01:55:13.820Z,2.69
2018-11-27T01:57:42.337Z,2.73
2018-11-27T02:00:24.956Z,2.70
2018-11-27T02:02:53.911Z,2.75
2018-11-27T02:05:23.002Z,2.70
2018-11-27T02:07:51.552Z,2.62
2018-11-27T02:10:20.071Z,2.63
2018-11-27T02:12:49.538Z,2.64
2018-11-27T02:15:26.462Z,2.61
2018-11-27T02:17:55.028Z,2.54
2018-11-27T02:20:23.489Z,2.49
2018-11-27T02:22:52.010Z,2.58
2018-11-27T02:25:22.445Z,2.67
2018-11-27T02:27:50.968Z,2.69
2018-11-27T02:30:20.853Z,2.76
2018-11-27T02:32:50.225Z,2.71
2018-11-27T02:35:21.838Z,2.63
2018-11-27T02:37:51.731Z,2.69
2018-11-27T02:40:20.247Z,2.78
2018-11-27T02:42:48.780Z,2.88
2018-11-27T02:45:18.573Z,2.96
2018-11-27T02:47:47.707Z,2.94
2018-11-27T02:50:20.809Z,3.01
2018-11-27T02:52:49.320Z,3.02
2018-11-27T02:55:22.147Z,3.02
2018-11-27T02:57:50.796Z,3.13
2018-11-27T03:00:21.252Z,3.05
2018-11-27T03:02:49.770Z,3.02
2018-11-27T03:05:27.047Z,3.07
2018-11-27T03:07:55.580Z,3.08
2018-11-27T03:10:24.118Z,3.12
2018-11-27T03:12:52.692Z,3.08
2018-11-27T03:15:21.193Z,3.05
2018-11-27T03:17:49.683Z,3.07
2018-11-27T03:20:19.575Z,3.10
2018-11-27T03:22:48.079Z,3.07
2018-11-27T03:25:18.526Z,3.03
2018-11-27T03:27:48.087Z,3.10
2018-11-27T03:30:23.872Z,3.17
2018-11-27T03:32:52.453Z,3.07
2018-11-27T03:35:22.872Z,3.14
2018-11-27T03:37:51.579Z,3.17
2018-11-27T03:40:28.285Z,3.13
2018-11-27T03:42:56.816Z,3.16
2018-11-27T03:45:26.213Z,3.13
2018-11-27T03:47:54.698Z,3.18
2018-11-27T03:50:26.329Z,3.13
2018-11-27T03:52:54.865Z,3.17
2018-11-27T03:55:23.444Z,3.15
2018-11-27T03:57:51.993Z,3.15
2018-11-27T04:00:22.297Z,3.05
2018-11-27T04:02:54.265Z,3.05
2018-11-27T04:05:23.810Z,3.12
2018-11-27T04:07:52.313Z,3.08
2018-11-27T04:10:20.961Z,3.04
2018-11-27T04:12:49.423Z,3.09
2018-11-27T04:15:18.029Z,3.12
2018-11-27T04:17:46.511Z,3.09
2018-11-27T04:20:15.030Z,3.12
2018-11-27T04:22:44.119Z,3.15
2018-11-27T04:25:13.920Z,3.07
2018-11-27T04:27:42.495Z,3.08
2018-11-27T04:30:16.040Z,3.07
2018-11-27T04:32:44.599Z,3.05
2018-11-27T04:35:16.058Z,3.04
2018-11-27T04:37:44.654Z,3.08
2018-11-27T04:40:15.163Z,3.04
2018-11-27T04:42:43.711Z,3.05
2018-11-27T04:45:13.656Z,3.01
2018-11-27T04:47:42.172Z,2.99
2018-11-27T04:50:11.833Z,3.00
2018-11-27T04:52:40.461Z,2.99
2018-11-27T04:55:10.602Z,3.01
2018-11-27T04:57:39.108Z,3.02
2018-11-27T05:00:13.045Z,3.01
2018-11-27T05:02:41.576Z,2.96
2018-11-27T05:05:10.649Z,2.98
2018-11-27T05:07:39.178Z,3.02
2018-11-27T05:10:10.804Z,3.02
2018-11-27T05:12:39.519Z,3.03
2018-11-27T05:15:12.194Z,2.99
2018-11-27T05:17:40.770Z,3.02
2018-11-27T05:20:10.586Z,2.98
2018-11-27T05:22:39.099Z,3.03
2018-11-27T05:25:13.140Z,3.01
2018-11-27T05:27:42.817Z,3.01
2018-11-27T05:30:20.229Z,3.05
2018-11-27T05:32:48.720Z,3.02
2018-11-27T05:35:19.251Z,3.01
2018-11-27T05:37:48.756Z,3.02
2018-11-27T05:40:19.318Z,2.97
2018-11-27T05:42:48.752Z,2.87
2018-11-27T05:45:19.333Z,2.95
2018-11-27T05:47:47.972Z,2.93
2018-11-27T05:50:17.454Z,2.90
2018-11-27T05:52:46.059Z,2.80
2018-11-27T05:55:15.155Z,2.77
2018-11-27T05:57:44.716Z,2.83
2018-11-27T06:00:22.721Z,2.81
2018-11-27T06:02:53.470Z,2.75
2018-11-27T06:05:22.622Z,2.72
2018-11-27T06:07:51.180Z,2.71
2018-11-27T06:10:20.608Z,2.70
2018-11-27T06:12:49.120Z,2.67
2018-11-27T06:15:22.628Z,2.69
2018-11-27T06:17:52.446Z,2.69
2018-11-27T06:20:21.756Z,2.68
2018-11-27T06:22:50.430Z,2.65
2018-11-27T06:25:20.003Z,2.67
2018-11-27T06:27:53.969Z,2.66
2018-11-27T06:30:23.658Z,2.64
2018-11-27T06:32:52.205Z,2.67
2018-11-27T06:35:22.839Z,2.66
2018-11-27T06:37:51.408Z,2.64
2018-11-27T06:40:22.284Z,2.66
2018-11-27T06:42:51.013Z,2.65
2018-11-27T06:45:20.140Z,2.71
2018-11-27T06:47:49.667Z,2.66
2018-11-27T06:50:19.862Z,2.65
2018-11-27T06:52:48.443Z,2.65
2018-11-27T06:55:19.219Z,2.67
2018-11-27T06:57:47.751Z,2.74
2018-11-27T07:00:17.395Z,2.78
2018-11-27T07:02:45.961Z,2.78
2018-11-27T07:05:15.044Z,2.80
2018-11-27T07:07:43.789Z,2.86
2018-11-27T07:10:20.540Z,2.89
2018-11-27T07:12:50.395Z,2.95
2018-11-27T07:15:20.418Z,2.94
2018-11-27T07:17:49.327Z,2.96
2018-11-27T07:20:17.932Z,2.95
2018-11-27T07:22:46.443Z,2.97
2018-11-27T07:25:15.881Z,2.99
2018-11-27T07:27:46.551Z,3.01
2018-11-27T07:30:17.668Z,3.01
2018-11-27T07:32:46.190Z,3.02
2018-11-27T07:35:15.356Z,3.07
2018-11-27T07:37:43.955Z,3.05
2018-11-27T07:40:17.303Z,3.05
2018-11-27T07:42:46.036Z,2.99
2018-11-27T07:45:16.633Z,2.98
2018-11-27T07:47:46.258Z,3.07
2018-11-27T07:50:15.653Z,3.10
2018-11-27T07:52:44.207Z,3.04
2018-11-27T07:55:13.630Z,3.07
2018-11-27T07:57:42.204Z,3.04
2018-11-27T08:00:12.814Z,3.05
2018-11-27T08:02:41.460Z,3.04
2018-11-27T08:05:13.255Z,3.07
2018-11-27T08:07:42.931Z,3.07
2018-11-27T08:10:13.998Z,3.11
2018-11-27T08:12:42.516Z,3.17
2018-11-27T08:15:12.511Z,3.17
2018-11-27T08:17:41.583Z,3.25
2018-11-27T08:20:15.258Z,3.23
2018-11-27T08:22:43.829Z,3.29
2018-11-27T08:25:13.631Z,3.33
2018-11-27T08:27:42.167Z,3.28
2018-11-27T08:30:14.788Z,3.42
2018-11-27T08:32:43.409Z,3.41
2018-11-27T08:35:17.896Z,3.48
2018-11-27T08:37:47.216Z,3.49
2018-11-27T08:40:16.594Z,3.49
2018-11-27T08:42:45.132Z,3.54
2018-11-27T08:45:14.901Z,3.43
2018-11-27T08:47:43.484Z,3.39
2018-11-27T08:50:16.211Z,3.40
2018-11-27T08:52:46.877Z,3.30
2018-11-27T08:55:16.043Z,3.31
2018-11-27T08:57:45.724Z,3.38
2018-11-27T09:00:18.373Z,3.40
2018-11-27T09:02:47.074Z,3.42
2018-11-27T09:05:15.822Z,3.48
2018-11-27T09:07:44.878Z,3.49
2018-11-27T09:10:15.877Z,3.42
2018-11-27T09:12:44.418Z,3.47
2018-11-27T09:15:14.043Z,3.51
2018-11-27T09:17:44.164Z,3.50
2018-11-27T09:20:13.231Z,3.60
2018-11-27T09:22:41.789Z,3.62
2018-11-27T09:25:12.651Z,3.69
2018-11-27T09:27:41.207Z,3.69
2018-11-27T09:30:12.005Z,3.68
2018-11-27T09:32:40.590Z,3.77
2018-11-27T09:35:09.588Z,3.67
2018-11-27T09:37:38.193Z,3.58
2018-11-27T09:40:09.800Z,3.66
2018-11-27T09:42:38.360Z,3.71
2018-11-27T09:45:09.723Z,3.64
2018-11-27T09:47:38.249Z,3.74
2018-11-27T09:50:09.058Z,3.74
2018-11-27T09:52:37.577Z,3.82
2018-11-27T09:55:12.981Z,3.90
2018-11-27T09:57:41.532Z,3.85
2018-11-27T10:00:16.001Z,3.99
2018-11-27T10:02:44.593Z,3.99
2018-11-27T10:05:13.188Z,4.01
2018-11-27T10:07:41.763Z,4.04
2018-11-27T10:10:11.559Z,4.02
2018-11-27T10:12:40.256Z,4.08
2018-11-27T10:15:28.421Z,4.28
2018-11-27T10:17:58.099Z,4.26
2018-11-27T10:20:27.979Z,4.28
2018-11-27T10:22:56.534Z,4.25
2018-11-27T10:25:25.085Z,4.32
2018-11-27T10:27:53.627Z,4.29
2018-11-27T10:30:25.775Z,4.30
2018-11-27T10:32:58.459Z,4.30
2018-11-27T10:35:30.136Z,4.33
2018-11-27T10:37:58.644Z,4.32
2018-11-27T10:40:27.186Z,4.35
2018-11-27T10:42:55.722Z,4.47
2018-11-27T10:45:24.355Z,4.60
2018-11-27T10:47:54.047Z,4.58
2018-11-27T10:50:22.780Z,4.58
2018-11-27T10:52:53.439Z,4.70
2018-11-27T10:55:22.495Z,4.70
2018-11-27T10:57:51.083Z,4.60
2018-11-27T11:00:28.919Z,4.45
2018-11-27T11:04:04.438Z,4.48
2018-11-27T11:06:33.428Z,4.44
2018-11-27T11:09:02.764Z,4.47
2018-11-27T11:11:31.325Z,4.46
2018-11-27T11:13:59.885Z,4.59
2018-11-27T11:16:28.391Z,4.73
2018-11-27T11:18:56.928Z,4.71
2018-11-27T11:21:25.580Z,4.74
2018-11-27T11:23:54.776Z,4.85
2018-11-27T11:26:23.379Z,4.91
2018-11-27T11:28:51.894Z,5.01
2018-11-27T11:31:20.387Z,5.06
2018-11-27T11:33:48.914Z,5.21
2018-11-27T11:36:17.473Z,5.19
2018-11-27T11:38:46.163Z,5.17
2018-11-27T11:41:14.947Z,5.27
2018-11-27T11:43:43.590Z,5.40
2018-11-27T11:46:12.178Z,5.36
2018-11-27T11:48:40.731Z,5.50
2018-11-27T11:51:09.244Z,5.50
2018-11-27T11:53:37.966Z,5.62
2018-11-27T11:56:08.165Z,5.81
2018-11-27T11:58:36.928Z,5.79
2018-11-27T12:01:05.858Z,5.87
2018-11-27T12:03:34.542Z,5.93
2018-11-27T12:06:03.127Z,5.84
2018-11-27T12:08:31.699Z,5.79
2018-11-27T12:11:00.206Z,5.69
2018-11-27T12:13:28.783Z,5.65
2018-11-27T12:15:57.388Z,5.61
2018-11-27T12:18:25.968Z,5.65
2018-11-27T12:20:54.631Z,5.81
2018-11-27T12:23:23.503Z,5.86
2018-11-27T12:25:52.298Z,6.01
2018-11-27T12:28:20.950Z,5.99
2018-11-27T12:30:49.444Z,5.90
2018-11-27T12:33:17.973Z,5.92
2018-11-27T12:35:46.481Z,5.78
2018-11-27T12:38:16.589Z,5.59
2018-11-27T12:40:45.247Z,5.49
2018-11-27T12:43:13.796Z,5.55
2018-11-27T12:45:42.283Z,5.57
2018-11-27T12:48:10.802Z,5.57
2018-11-27T12:50:43.504Z,5.62
2018-11-27T12:53:16.835Z,5.63
2018-11-27T12:55:45.788Z,5.60
2018-11-27T12:58:14.356Z,5.66
2018-11-27T13:00:42.952Z,5.63
2018-11-27T13:03:11.595Z,5.66
2018-11-27T13:05:43.077Z,5.61
2018-11-27T13:08:14.414Z,5.56
2018-11-27T13:10:43.236Z,5.52
2018-11-27T13:13:11.807Z,5.47
2018-11-27T13:15:40.942Z,5.43
2018-11-27T13:18:10.281Z,5.34
2018-11-27T13:20:39.633Z,5.21
2018-11-27T13:23:08.680Z,5.18
2018-11-27T13:25:37.942Z,5.17
2018-11-27T13:28:08.832Z,5.25
2018-11-27T13:31:13.424Z,5.13
2018-11-27T13:34:15.517Z,5.17
2018-11-27T13:36:44.027Z,4.93
2018-11-27T13:39:23.869Z,4.95
2018-11-27T13:41:52.444Z,4.91
2018-11-27T13:44:20.976Z,4.87
2018-11-27T13:46:49.524Z,4.98
2018-11-27T13:49:18.034Z,5.03
2018-11-27T13:51:46.621Z,4.98
2018-11-27T13:54:15.140Z,4.86
2018-11-27T13:56:43.674Z,4.77
2018-11-27T13:59:12.210Z,4.72
2018-11-27T14:01:40.711Z,4.69
2018-11-27T14:04:09.251Z,4.59
2018-11-27T14:06:37.743Z,4.49
2018-11-27T14:09:09.110Z,4.50
2018-11-27T14:11:37.821Z,4.38
2018-11-27T14:14:07.172Z,4.41
2018-11-27T14:16:36.059Z,4.44
2018-11-27T14:19:04.652Z,4.26
2018-11-27T14:21:33.188Z,4.26
2018-11-27T14:24:01.740Z,4.31
2018-11-27T14:26:30.281Z,4.21
2018-11-27T14:28:58.868Z,4.23
2018-11-27T14:31:27.466Z,4.20
2018-11-27T14:33:56.029Z,4.18
2018-11-27T14:36:24.604Z,4.03
2018-11-27T14:38:53.283Z,4.03
2018-11-27T14:41:21.767Z,4.07
2018-11-27T14:43:50.267Z,4.05
2018-11-27T14:46:18.779Z,3.86
2018-11-27T14:48:47.316Z,3.84
2018-11-27T14:51:15.848Z,3.69
2018-11-27T14:53:44.351Z,3.64
2018-11-27T14:56:12.925Z,3.62
2018-11-27T14:58:41.439Z,3.50
2018-11-27T15:01:09.992Z,3.47
2018-11-27T15:03:38.531Z,3.41
2018-11-27T15:06:07.124Z,3.35
2018-11-27T15:08:35.679Z,3.28
2018-11-27T15:11:04.205Z,3.23
2018-11-27T15:13:32.740Z,3.14
2018-11-27T15:16:01.411Z,3.08
2018-11-27T15:18:29.968Z,2.98
2018-11-27T15:20:58.525Z,2.93
2018-11-27T15:23:27.066Z,2.82
2018-11-27T15:25:55.609Z,2.74
2018-11-27T15:28:24.119Z,2.64
2018-11-27T15:30:52.635Z,2.60
2018-11-27T15:33:21.199Z,2.54
2018-11-27T15:35:49.727Z,2.51
2018-11-27T15:38:18.209Z,2.46
2018-11-27T15:40:46.740Z,2.44
2018-11-27T15:43:15.251Z,2.39
2018-11-27T15:45:43.967Z,2.42
2018-11-27T15:48:12.743Z,2.29
2018-11-27T15:50:41.280Z,2.18
2018-11-27T15:53:09.791Z,2.14
2018-11-27T15:55:39.596Z,2.10
2018-11-27T15:58:15.784Z,2.09
2018-11-27T16:00:45.272Z,2.07
2018-11-27T16:03:13.815Z,2.02
2018-11-27T16:05:45.355Z,1.99
2018-11-27T16:08:14.467Z,1.93
2018-11-27T16:10:43.004Z,1.91
2018-11-27T16:13:11.506Z,1.86
2018-11-27T16:15:40.116Z,1.85
2018-11-27T16:18:08.889Z,1.81
2018-11-27T16:20:37.485Z,1.78
2018-11-27T16:23:06.302Z,1.77
2018-11-27T16:25:34.810Z,1.57
2018-11-27T16:28:03.326Z,1.46
2018-11-27T16:30:32.259Z,1.39
2018-11-27T16:33:00.794Z,1.42
2018-11-27T16:35:29.320Z,1.10
2018-11-27T16:37:59.947Z,1.13
2018-11-27T16:40:35.007Z,0.94
2018-11-27T16:43:03.564Z,1.07
2018-11-27T16:45:32.114Z,1.11
2018-11-27T16:48:00.630Z,1.15
2018-11-27T16:50:29.184Z,1.10
2018-11-27T16:52:57.699Z,1.11
2018-11-27T16:55:26.263Z,1.14
2018-11-27T16:57:54.764Z,1.16
2018-11-27T17:00:27.147Z,1.22
2018-11-27T17:02:57.557Z,1.21
2018-11-27T17:05:27.389Z,1.22
2018-11-27T17:07:55.904Z,1.18
2018-11-27T17:10:24.443Z,1.15
2018-11-27T17:12:54.274Z,1.15
2018-11-27T17:15:24.242Z,1.10
2018-11-27T17:17:53.121Z,1.14
2018-11-27T17:20:23.132Z,1.06
2018-11-27T17:22:52.080Z,0.99
2018-11-27T17:25:20.592Z,1.01
2018-11-27T17:27:49.561Z,0.91
2018-11-27T17:30:25.792Z,0.94
2018-11-27T17:32:55.642Z,0.96
2018-11-27T17:35:24.823Z,0.95
2018-11-27T17:37:53.360Z,0.93
2018-11-27T17:40:21.839Z,0.91
2018-11-27T17:42:50.385Z,0.88
2018-11-27T17:45:19.951Z,0.91
2018-11-27T17:47:49.497Z,0.87
2018-11-27T17:50:18.339Z,0.85
2018-11-27T17:52:46.860Z,0.80
2018-11-27T17:55:15.464Z,0.75
2018-11-27T17:57:43.982Z,0.75
2018-11-27T18:00:15.804Z,0.52
2018-11-27T18:02:45.923Z,0.54
2018-11-27T18:05:14.440Z,0.47
2018-11-27T18:07:42.996Z,0.31
2018-11-27T18:10:12.145Z,0.03
2018-11-27T18:12:40.685Z,-0.02
2018-11-27T18:15:17.227Z,0.11
2018-11-27T18:17:45.857Z,0.08
2018-11-27T18:20:14.508Z,0.14
2018-11-27T18:22:43.047Z,0.21
2018-11-27T18:25:13.811Z,0.17
2018-11-27T18:27:43.241Z,0.18
2018-11-27T18:30:13.159Z,0.22
2018-11-27T18:32:41.749Z,0.20
2018-11-27T18:35:12.717Z,0.31
2018-11-27T18:37:41.291Z,0.34
2018-11-27T18:40:12.917Z,0.35
2018-11-27T18:42:41.614Z,-0.01
2018-11-27T18:45:13.552Z,0.05
2018-11-27T18:47:42.043Z,0.09
2018-11-27T18:50:11.337Z,0.13
2018-11-27T18:52:39.924Z,0.16
2018-11-27T18:55:10.675Z,0.05
2018-11-27T18:57:39.311Z,0.07
2018-11-27T19:00:27.024Z,0.05
2018-11-27T19:02:55.720Z,-0.02
2018-11-27T19:05:24.271Z,-0.03
2018-11-27T19:07:52.799Z,-0.06
2018-11-27T19:10:23.512Z,-0.06
2018-11-27T19:12:52.098Z,-0.02
2018-11-27T19:15:38.735Z,-0.04
2018-11-27T19:18:14.270Z,-0.05
2018-11-27T19:20:43.578Z,-0.11
2018-11-27T19:23:12.157Z,-0.10
2018-11-27T19:25:40.683Z,-0.07
2018-11-27T19:28:09.836Z,-0.09
2018-11-27T19:30:38.405Z,-0.11
2018-11-27T19:33:07.399Z,-0.13
2018-11-27T19:35:35.953Z,-0.18
2018-11-27T19:39:33.985Z,-0.13
2018-11-27T19:42:02.490Z,-0.23
2018-11-27T19:44:31.031Z,-0.23
2018-11-27T19:46:59.563Z,-0.27
2018-11-27T19:49:28.076Z,-0.23
2018-11-27T19:51:56.570Z,-0.29
2018-11-27T19:54:25.114Z,-0.29
2018-11-27T19:56:53.660Z,-0.32
2018-11-27T19:59:22.168Z,-0.34
2018-11-27T20:01:50.671Z,-0.37
2018-11-27T20:04:19.366Z,-0.35
2018-11-27T20:06:47.717Z,-0.44
2018-11-27T20:09:16.268Z,-0.46
2018-11-27T20:11:44.788Z,-0.52
2018-11-27T20:14:13.329Z,-0.51
2018-11-27T20:16:41.803Z,-0.58
2018-11-27T20:19:10.319Z,-0.60
2018-11-27T20:21:38.811Z,-0.50
2018-11-27T20:24:07.361Z,-0.58
2018-11-27T20:26:36.312Z,-0.60
2018-11-27T20:29:04.549Z,-0.56
2018-11-27T20:31:33.083Z,-0.56
2018-11-27T20:34:01.612Z,-0.59
2018-11-27T20:36:30.297Z,-0.62
2018-11-27T20:38:58.811Z,-0.63
2018-11-27T20:41:27.416Z,-0.65
2018-11-27T20:43:55.957Z,-0.65
2018-11-27T20:46:24.466Z,-0.60
2018-11-27T20:48:53.053Z,-0.67
2018-11-27T20:51:21.633Z,-0.66
2018-11-27T20:53:50.141Z,-0.72
2018-11-27T20:56:18.660Z,-0.74
2018-11-27T20:58:47.117Z,-0.75
2018-11-27T21:01:15.636Z,-0.82
2018-11-27T21:03:44.156Z,-0.81
2018-11-27T21:06:12.770Z,-0.75
2018-11-27T21:08:41.244Z,-0.74
2018-11-27T21:11:09.785Z,-0.75
2018-11-27T21:13:38.344Z,-0.65
2018-11-27T21:16:06.912Z,-0.69
2018-11-27T21:18:35.419Z,-0.63
2018-11-27T21:21:03.951Z,-0.67
2018-11-27T21:23:32.463Z,-0.55
2018-11-27T21:26:04.866Z,-0.58
2018-11-27T21:28:34.295Z,-0.62
2018-11-27T21:31:03.761Z,-0.63
2018-11-27T21:33:32.232Z,-0.63
2018-11-27T21:36:00.767Z,-0.56
2018-11-27T21:38:29.255Z,-0.54
2018-11-27T21:40:57.759Z,-0.49
2018-11-27T21:43:26.234Z,-0.45
2018-11-27T21:45:54.736Z,-0.41
2018-11-27T21:48:23.250Z,-0.36
2018-11-27T21:53:34.823Z,-0.53
2018-11-27T21:56:03.332Z,-0.41
2018-11-27T21:58:31.823Z,-0.49
2018-11-27T22:01:00.346Z,-0.47
2018-11-27T22:03:28.847Z,-0.54
2018-11-27T22:05:57.380Z,-0.58
2018-11-27T22:08:25.863Z,-0.55
2018-11-27T22:10:54.408Z,-0.64
2018-11-27T22:13:22.932Z,-0.71
2018-11-27T22:15:51.448Z,-0.74
2018-11-27T22:18:19.943Z,-0.69
2018-11-27T22:20:48.459Z,-0.67
2018-11-27T22:23:16.943Z,-0.72
2018-11-27T22:25:45.451Z,-0.63
2018-11-27T22:28:13.933Z,-0.74
2018-11-27T22:30:42.447Z,-0.72
2018-11-27T22:33:10.954Z,-0.81
2018-11-27T22:35:39.547Z,-0.81
2018-11-27T22:38:08.563Z,-0.77
2018-11-27T22:40:37.093Z,-0.83
2018-11-27T22:43:06.863Z,-0.88
2018-11-27T22:45:38.452Z,-0.78
2018-11-27T22:48:08.204Z,-0.83
2018-11-27T22:50:36.763Z,-0.82
2018-11-27T22:53:06.197Z,-0.82
2018-11-27T22:55:34.875Z,-0.84
2018-11-27T22:58:03.396Z,-0.84
2018-11-27T23:00:37.322Z,-0.92
2018-11-27T23:03:05.847Z,-0.93
2018-11-27T23:05:34.352Z,-0.91
2018-11-27T23:08:02.903Z,-0.95
2018-11-27T23:10:34.536Z,-0.95
2018-11-27T23:13:03.107Z,-0.96
2018-11-27T23:15:31.640Z,-0.95
2018-11-27T23:18:00.153Z,-0.97
2018-11-27T23:20:28.696Z,-1.04
2018-11-27T23:22:57.238Z,-1.05
2018-11-27T23:25:25.734Z,-1.08
2018-11-27T23:27:54.294Z,-1.07
2018-11-27T23:30:24.783Z,-1.09
2018-11-27T23:32:53.379Z,-1.08
2018-11-27T23:35:21.905Z,-1.07
2018-11-27T23:37:50.470Z,-1.06
2018-11-27T23:40:20.939Z,-1.18
2018-11-27T23:42:49.539Z,-1.17
2018-11-27T23:45:20.563Z,-1.16
2018-11-27T23:47:49.148Z,-1.18
2018-11-27T23:50:18.550Z,-1.15
2018-11-27T23:52:47.281Z,-1.18
2018-11-27T23:55:16.523Z,-1.12
2018-11-27T23:57:45.437Z,-1.18
